createdAt,value
2018-03-24T00:00:35.840Z,6.53
2018-03-24T00:01:24.980Z,7.28
2018-03-24T00:02:14.019Z,6.35
2018-03-24T00:03:03.057Z,5.40
2018-03-24T00:03:52.100Z,5.82
2018-03-24T00:04:41.144Z,6.50
2018-03-24T00:05:30.192Z,6.80
2018-03-24T00:06:19.236Z,6.57
2018-03-24T00:07:08.390Z,6.12
2018-03-24T00:07:57.425Z,5.70
2018-03-24T00:08:46.491Z,6.30
2018-03-24T00:09:35.585Z,6.35
2018-03-24T00:10:24.640Z,6.15
2018-03-24T00:11:13.674Z,6.40
2018-03-24T00:12:02.712Z,5.93
2018-03-24T00:12:51.760Z,5.90
2018-03-24T00:13:40.809Z,5.90
2018-03-24T00:14:29.860Z,5.72
2018-03-24T00:15:18.950Z,5.53
2018-03-24T00:16:08.005Z,6.12
2018-03-24T00:16:57.055Z,5.18
2018-03-24T00:17:46.102Z,5.45
2018-03-24T00:18:35.143Z,5.30
2018-03-24T00:19:24.182Z,5.93
2018-03-24T00:20:13.225Z,5.75
2018-03-24T00:21:02.334Z,5.65
2018-03-24T00:21:51.370Z,5.25
2018-03-24T00:22:40.541Z,5.28
2018-03-24T00:23:29.581Z,5.28
2018-03-24T00:24:18.625Z,5.05
2018-03-24T00:25:07.669Z,5.32
2018-03-24T00:25:56.723Z,5.70
2018-03-24T00:26:45.770Z,4.95
2018-03-24T00:27:34.805Z,5.30
2018-03-24T00:28:24.151Z,4.95
2018-03-24T00:29:13.193Z,5.03
2018-03-24T00:30:02.233Z,5.65
2018-03-24T00:30:51.283Z,5.50
2018-03-24T00:31:40.324Z,5.78
2018-03-24T00:32:29.374Z,5.82
2018-03-24T00:33:18.421Z,5.43
2018-03-24T00:34:07.733Z,5.43
2018-03-24T00:34:56.784Z,5.55
2018-03-24T00:35:45.841Z,5.55
2018-03-24T00:36:34.891Z,6.68
2018-03-24T00:37:23.963Z,5.62
2018-03-24T00:38:13.004Z,5.07
2018-03-24T00:39:02.049Z,5.00
2018-03-24T00:39:51.180Z,5.30
2018-03-24T00:40:40.231Z,5.62
2018-03-24T00:41:29.277Z,6.10
2018-03-24T00:42:18.358Z,5.07
2018-03-24T00:43:07.394Z,5.80
2018-03-24T00:43:56.438Z,5.53
2018-03-24T00:44:45.484Z,6.62
2018-03-24T00:45:36.346Z,6.10
2018-03-24T00:46:25.388Z,5.57
2018-03-24T00:47:14.426Z,6.22
2018-03-24T00:48:03.474Z,6.43
2018-03-24T00:48:52.513Z,5.28
2018-03-24T00:49:41.557Z,5.97
2018-03-24T00:50:30.601Z,5.57
2018-03-24T00:51:19.744Z,6.20
2018-03-24T00:52:08.792Z,5.97
2018-03-24T00:52:57.835Z,6.22
2018-03-24T00:53:46.880Z,7.18
2018-03-24T00:54:35.929Z,6.53
2018-03-24T00:55:25.025Z,6.78
2018-03-24T00:56:14.070Z,5.97
2018-03-24T00:57:03.169Z,6.45
2018-03-24T00:57:52.205Z,6.65
2018-03-24T00:58:41.242Z,6.32
2018-03-24T00:59:30.291Z,7.05
2018-03-24T01:00:19.400Z,6.28
2018-03-24T01:01:08.569Z,6.68
2018-03-24T08:20:45.174Z,27.83
2018-03-24T08:21:34.576Z,35.15
2018-03-24T08:22:23.641Z,22.10
2018-03-24T08:23:12.698Z,21.48
2018-03-24T08:24:01.761Z,20.95
2018-03-24T08:24:50.825Z,24.48
2018-03-24T08:25:39.887Z,24.42
2018-03-24T08:26:29.072Z,26.87
2018-03-24T08:27:18.141Z,42.47
2018-03-24T08:28:07.211Z,36.58
2018-03-24T08:28:56.264Z,38.45
2018-03-24T08:29:45.357Z,31.15
2018-03-24T08:30:34.413Z,31.60
2018-03-24T08:31:23.501Z,97.45
2018-03-24T08:32:12.560Z,35.97
2018-03-24T08:33:01.620Z,39.00
2018-03-24T08:33:50.694Z,34.25
2018-03-24T08:34:39.752Z,47.50
2018-03-24T08:35:28.869Z,34.65
2018-03-24T08:36:17.934Z,28.30
2018-03-24T08:37:06.998Z,23.42
2018-03-24T08:37:56.070Z,25.85
2018-03-24T08:38:45.131Z,36.40
2018-03-24T08:39:34.205Z,31.52
2018-03-24T08:40:23.314Z,30.58
2018-03-24T08:41:12.369Z,22.35
2018-03-24T08:42:01.705Z,32.38
2018-03-24T08:42:51.154Z,75.10
2018-03-24T08:43:40.213Z,37.85
2018-03-24T08:44:29.399Z,27.25
2018-03-24T08:45:18.624Z,25.08
2018-03-24T08:46:07.805Z,42.13
2018-03-24T08:46:57.342Z,46.63
2018-03-24T08:47:46.411Z,43.70
2018-03-24T08:48:35.488Z,45.88
2018-03-24T08:49:24.726Z,54.40
2018-03-24T08:50:13.782Z,29.52
2018-03-24T08:51:02.938Z,50.33
2018-03-24T08:51:51.999Z,27.35
2018-03-24T08:52:41.077Z,22.17
2018-03-24T08:53:30.138Z,26.77
2018-03-24T08:54:19.204Z,22.85
2018-03-24T08:55:08.277Z,22.65
2018-03-24T08:55:57.337Z,25.67
2018-03-24T08:56:46.453Z,29.35
2018-03-24T08:57:35.509Z,26.45
2018-03-24T08:58:24.606Z,27.08
2018-03-24T08:59:13.678Z,15.77
2018-03-24T09:00:02.740Z,16.25
2018-03-24T09:00:51.822Z,15.50
2018-03-24T09:01:40.929Z,12.93
2018-03-24T09:02:29.994Z,22.80
2018-03-24T09:03:19.052Z,21.80
2018-03-24T09:04:08.138Z,16.85
2018-03-24T09:04:57.197Z,19.75
2018-03-24T09:05:46.258Z,22.35
2018-03-24T09:06:35.324Z,17.60
2018-03-24T09:07:24.513Z,16.45
2018-03-24T09:08:13.570Z,16.30
2018-03-24T09:09:02.660Z,19.55
2018-03-24T09:09:51.731Z,19.10
2018-03-24T09:10:40.792Z,21.27
2018-03-24T09:11:29.848Z,20.45
2018-03-24T09:12:18.910Z,23.33
2018-03-24T09:13:08.079Z,27.08
2018-03-24T09:13:57.140Z,17.20
2018-03-24T09:14:46.205Z,23.02
2018-03-24T09:15:35.256Z,16.08
2018-03-24T09:16:24.368Z,18.42
2018-03-24T09:17:13.449Z,40.38
2018-03-24T09:18:02.549Z,12.57
2018-03-24T09:18:51.588Z,23.67
2018-03-24T09:19:40.652Z,25.65
2018-03-24T09:20:29.703Z,90.40
2018-03-24T09:21:18.778Z,33.92
2018-03-24T09:22:07.904Z,32.75
2018-03-24T09:22:56.955Z,41.15
2018-03-24T09:23:46.005Z,53.28
2018-03-24T09:24:35.080Z,33.70
2018-03-24T09:25:24.191Z,25.92
2018-03-24T09:26:13.259Z,27.60
2018-03-24T09:27:02.414Z,28.25
2018-03-24T09:27:51.478Z,17.00
2018-03-24T09:28:40.532Z,33.65
2018-03-24T09:29:29.595Z,29.42
2018-03-24T09:30:18.653Z,43.20
2018-03-24T09:31:07.705Z,31.40
2018-03-24T09:31:56.767Z,15.20
2018-03-24T09:32:45.876Z,42.75
2018-03-24T09:33:34.940Z,34.10
2018-03-24T09:34:24.017Z,20.58
2018-03-24T09:35:13.082Z,16.90
2018-03-24T09:36:02.151Z,20.05
2018-03-24T09:36:51.269Z,22.02
2018-03-24T09:37:40.321Z,18.48
2018-03-24T09:38:29.482Z,16.37
2018-03-24T09:39:18.586Z,25.45
2018-03-24T09:40:07.720Z,10.10
2018-03-24T09:40:56.809Z,19.12
2018-03-24T09:41:45.945Z,19.27
2018-03-24T09:42:35.008Z,19.90
2018-03-24T09:43:24.066Z,16.67
2018-03-24T09:44:13.129Z,11.75
2018-03-24T09:45:02.184Z,12.50
2018-03-24T09:45:51.246Z,10.80
2018-03-24T09:46:40.295Z,12.90
2018-03-24T09:47:29.471Z,12.50
2018-03-24T09:48:18.556Z,23.25
2018-03-24T09:49:07.600Z,21.02
2018-03-24T09:49:56.677Z,16.30
2018-03-24T09:50:45.738Z,13.23
2018-03-24T09:51:34.785Z,14.63
2018-03-24T09:52:23.902Z,15.48
2018-03-24T09:53:12.963Z,13.48
2018-03-24T09:54:02.021Z,11.95
2018-03-24T09:54:51.094Z,9.32
2018-03-24T09:55:40.148Z,17.98
2018-03-24T09:56:29.288Z,8.27
2018-03-24T09:57:18.339Z,14.02
2018-03-24T09:58:07.397Z,8.80
2018-03-24T09:58:56.453Z,14.63
2018-03-24T09:59:45.531Z,10.48
2018-03-24T10:00:34.597Z,14.93
2018-03-24T10:01:23.661Z,16.95
2018-03-24T10:02:12.772Z,13.88
2018-03-24T10:03:01.846Z,31.75
2018-03-24T10:03:50.990Z,15.65
2018-03-24T10:04:40.146Z,17.60
2018-03-24T10:05:29.206Z,16.17
2018-03-24T10:06:18.335Z,43.75
2018-03-24T10:07:07.408Z,51.70
2018-03-24T10:07:56.483Z,14.45
2018-03-24T10:08:45.549Z,17.30
2018-03-24T10:09:34.616Z,21.95
2018-03-24T10:10:23.713Z,15.00
2018-03-24T10:11:12.768Z,24.73
2018-03-24T10:12:01.834Z,16.87
2018-03-24T10:12:50.940Z,8.90
2018-03-24T10:13:39.984Z,8.32
2018-03-24T10:14:29.046Z,17.17
2018-03-24T10:15:18.105Z,15.43
2018-03-24T10:16:07.265Z,28.75
2018-03-24T10:16:56.325Z,22.58
2018-03-24T10:17:46.211Z,9.65
2018-03-24T10:18:35.300Z,11.50
2018-03-24T10:19:24.428Z,10.73
2018-03-24T10:20:13.482Z,13.23
2018-03-24T10:22:44.312Z,8.05
2018-03-24T10:23:43.036Z,16.08
2018-03-24T10:24:32.254Z,7.43
2018-03-24T10:25:21.310Z,12.05
2018-03-24T10:26:10.366Z,36.45
2018-03-24T10:26:59.423Z,16.62
2018-03-24T10:27:48.475Z,26.30
2018-03-24T10:28:37.529Z,13.43
2018-03-24T10:29:26.585Z,24.65
2018-03-24T10:30:15.682Z,91.12
2018-03-24T10:31:05.549Z,42.50
2018-03-24T10:31:54.621Z,21.35
2018-03-24T10:32:43.666Z,13.88
2018-03-24T10:33:32.794Z,13.32
2018-03-24T10:34:21.842Z,11.48
2018-03-24T10:35:10.914Z,60.70
2018-03-24T10:36:00.097Z,24.95
2018-03-24T10:36:49.152Z,23.10
2018-03-24T10:37:43.775Z,12.15
2018-03-24T10:38:32.833Z,29.50
2018-03-24T10:39:21.926Z,20.80
2018-03-24T10:40:10.982Z,58.70
2018-03-24T10:41:05.814Z,29.73
2018-03-24T10:41:54.936Z,25.48
2018-03-24T10:42:49.454Z,65.97
2018-03-24T10:43:39.429Z,40.67
2018-03-24T10:44:28.494Z,33.83
2018-03-24T10:45:17.554Z,11.80
2018-03-24T10:46:06.619Z,23.12
2018-03-24T10:46:56.128Z,17.83
2018-03-24T10:47:45.189Z,32.85
2018-03-24T10:48:34.250Z,25.95
2018-03-24T10:49:23.305Z,27.73
2018-03-24T10:50:12.364Z,35.00
2018-03-24T10:51:01.438Z,15.68
2018-03-24T10:51:50.508Z,16.95
2018-03-24T10:52:39.681Z,17.70
2018-03-24T10:53:28.750Z,57.95
2018-03-24T10:54:17.814Z,19.42
2018-03-24T10:55:06.868Z,18.60
2018-03-24T10:55:55.935Z,13.80
2018-03-24T10:56:45.065Z,14.02
2018-03-24T10:57:34.132Z,21.23
2018-03-24T10:58:23.218Z,10.10
2018-03-24T10:59:12.271Z,9.60
2018-03-24T11:00:01.342Z,23.12
2018-03-24T11:00:55.887Z,16.58
2018-03-24T11:01:44.965Z,14.90
2018-03-24T11:02:35.557Z,13.25
2018-03-24T11:03:24.704Z,16.15
2018-03-24T11:04:13.900Z,13.40
2018-03-24T11:05:03.186Z,14.90
2018-03-24T11:05:52.268Z,10.25
2018-03-24T11:06:41.330Z,12.10
2018-03-24T11:07:30.390Z,21.17
2018-03-24T11:08:19.448Z,13.90
2018-03-24T11:09:08.516Z,15.90
2018-03-24T11:09:57.621Z,11.80
2018-03-24T11:10:46.718Z,9.73
2018-03-24T11:11:35.848Z,19.10
2018-03-24T11:12:24.941Z,11.40
2018-03-24T11:13:13.994Z,24.25
2018-03-24T11:14:03.063Z,14.00
2018-03-24T11:14:52.128Z,106.97
2018-03-24T11:15:41.262Z,70.62
2018-03-24T11:16:30.319Z,54.60
2018-03-24T11:17:19.376Z,40.17
2018-03-24T11:18:08.431Z,21.73
2018-03-24T11:18:57.503Z,18.25
2018-03-24T11:19:46.569Z,31.55
2018-03-24T11:20:35.641Z,12.13
2018-03-24T11:21:24.816Z,19.77
2018-03-24T11:22:13.873Z,12.77
2018-03-24T11:23:02.925Z,12.88
2018-03-24T11:23:51.984Z,16.37
2018-03-24T11:24:41.046Z,17.58
2018-03-24T11:25:30.116Z,16.65
2018-03-24T11:26:19.287Z,20.25
2018-03-24T11:27:08.343Z,20.05
2018-03-24T11:27:57.421Z,20.85
2018-03-24T11:28:46.502Z,21.95
2018-03-24T11:29:35.558Z,19.67
2018-03-24T11:30:24.624Z,20.37
2018-03-24T11:31:13.674Z,24.27
2018-03-24T11:32:02.795Z,22.77
2018-03-24T11:32:51.858Z,20.73
2018-03-24T11:33:40.926Z,26.52
2018-03-24T11:34:29.999Z,26.77
2018-03-24T11:35:19.080Z,19.87
2018-03-24T11:36:08.137Z,22.15
2018-03-24T11:36:57.204Z,27.77
2018-03-24T11:37:46.364Z,30.65
2018-03-24T11:38:35.422Z,22.25
2018-03-24T11:39:24.502Z,17.10
2018-03-24T11:40:13.561Z,18.20
2018-03-24T11:41:02.613Z,19.42
2018-03-24T11:41:52.482Z,20.37
2018-03-24T11:42:41.549Z,35.83
2018-03-24T11:43:30.722Z,37.55
2018-03-24T11:44:19.779Z,43.83
2018-03-24T11:45:08.853Z,44.75
2018-03-24T11:45:57.957Z,64.28
2018-03-24T11:46:47.010Z,52.58
2018-03-24T11:47:36.088Z,42.22
2018-03-24T11:48:25.158Z,31.12
2018-03-24T11:49:14.270Z,32.50
2018-03-24T11:50:03.331Z,28.08
2018-03-24T11:50:52.380Z,24.35
2018-03-24T11:51:41.435Z,25.67
2018-03-24T11:52:30.496Z,17.27
2018-03-24T11:53:19.733Z,19.12
2018-03-24T11:54:08.794Z,46.47
2018-03-24T11:54:57.892Z,37.13
2018-03-24T11:55:46.952Z,28.90
2018-03-24T11:56:36.008Z,31.58
2018-03-24T11:57:25.075Z,52.45
2018-03-24T11:58:14.143Z,40.67
2018-03-24T11:59:03.317Z,35.33
2018-03-24T11:59:52.375Z,53.20
2018-03-24T12:00:41.444Z,61.72
2018-03-24T12:01:30.513Z,74.60
2018-03-24T12:02:19.578Z,37.45
2018-03-24T12:03:08.644Z,36.53
2018-03-24T12:03:57.838Z,36.03
2018-03-24T12:04:46.903Z,29.73
2018-03-24T12:05:35.964Z,33.55
2018-03-24T12:06:25.010Z,28.73
2018-03-24T12:07:14.086Z,37.00
2018-03-24T12:08:03.138Z,30.88
2018-03-24T12:08:52.203Z,20.88
2018-03-24T12:09:41.295Z,26.08
2018-03-24T12:10:30.355Z,20.25
2018-03-24T12:11:19.422Z,17.67
2018-03-24T12:12:08.483Z,22.90
2018-03-24T12:12:57.542Z,24.08
2018-03-24T12:13:46.595Z,19.45
2018-03-24T12:14:35.666Z,19.87
2018-03-24T12:15:24.760Z,21.75
2018-03-24T12:16:13.818Z,19.98
2018-03-24T12:17:02.875Z,30.80
2018-03-24T12:17:51.937Z,26.60
2018-03-24T12:18:41.016Z,25.40
2018-03-24T12:19:30.077Z,28.95
2018-03-24T12:20:19.160Z,20.15
2018-03-24T12:21:08.340Z,21.20
2018-03-24T12:21:57.386Z,27.20
2018-03-24T12:22:46.442Z,24.65
2018-03-24T12:23:35.496Z,23.00
2018-03-24T12:24:24.546Z,19.02
2018-03-24T12:25:13.600Z,20.35
2018-03-24T12:26:02.655Z,17.98
2018-03-24T12:26:51.829Z,20.85
2018-03-24T12:27:40.922Z,18.05
2018-03-24T12:28:29.989Z,18.85
2018-03-24T12:29:19.049Z,31.02
2018-03-24T12:30:08.180Z,25.83
2018-03-24T12:30:57.258Z,24.08
2018-03-24T12:31:46.345Z,106.10
2018-03-24T12:32:35.449Z,28.80
2018-03-24T12:33:24.503Z,30.23
2018-03-24T12:34:13.563Z,32.78
2018-03-24T12:35:02.622Z,67.20
2018-03-24T12:35:51.757Z,47.75
2018-03-24T12:36:40.817Z,16.05
2018-03-24T12:37:29.884Z,22.52
2018-03-24T12:38:18.977Z,27.65
2018-03-24T12:39:08.031Z,31.05
2018-03-24T12:39:57.103Z,26.33
2018-03-24T12:40:46.173Z,28.35
2018-03-24T12:41:35.241Z,32.22
2018-03-24T12:42:24.292Z,20.83
2018-03-24T12:43:13.350Z,28.85
2018-03-24T12:44:02.518Z,52.08
2018-03-24T12:44:52.014Z,41.67
2018-03-24T12:45:41.075Z,40.75
2018-03-24T12:46:30.177Z,26.80
2018-03-24T12:47:19.544Z,44.58
2018-03-24T12:48:08.614Z,42.42
2018-03-24T12:48:57.728Z,46.75
2018-03-24T12:49:46.943Z,77.65
2018-03-24T12:50:36.002Z,53.28
2018-03-24T12:51:25.185Z,47.67
2018-03-24T12:52:14.240Z,42.53
2018-03-24T12:53:03.313Z,24.67
2018-03-24T12:53:52.363Z,33.80
2018-03-24T12:54:41.414Z,33.30
2018-03-24T12:55:30.470Z,31.80
2018-03-24T12:56:19.537Z,41.08
2018-03-24T12:57:08.638Z,46.78
2018-03-24T12:57:57.707Z,35.65
2018-03-24T12:58:46.757Z,34.28
2018-03-24T12:59:35.817Z,35.45
2018-03-24T13:00:24.931Z,26.50
2018-03-24T13:01:14.204Z,47.47
2018-03-24T13:02:03.297Z,36.00
2018-03-24T13:02:52.461Z,30.27
2018-03-24T13:03:41.517Z,28.70
2018-03-24T13:04:30.572Z,28.48
2018-03-24T13:05:19.633Z,30.25
2018-03-24T13:06:08.689Z,27.92
2018-03-24T13:06:57.760Z,35.75
2018-03-24T13:07:46.893Z,42.05
2018-03-24T13:08:35.960Z,27.25
2018-03-24T13:09:25.024Z,29.40
2018-03-24T13:10:14.093Z,23.80
2018-03-24T13:11:03.152Z,25.75
2018-03-24T13:11:52.235Z,28.12
2018-03-24T13:12:41.410Z,23.67
2018-03-24T13:13:30.480Z,18.42
2018-03-24T13:14:19.532Z,13.25
2018-03-24T13:15:08.588Z,22.80
2018-03-24T13:15:57.643Z,35.30
2018-03-24T13:16:46.695Z,32.75
2018-03-24T13:17:35.760Z,26.33
2018-03-24T13:18:24.865Z,26.77
2018-03-24T13:19:13.926Z,22.00
2018-03-24T13:20:03.012Z,22.58
2018-03-24T13:20:52.087Z,22.13
2018-03-24T13:21:41.161Z,16.75
2018-03-24T13:22:30.229Z,20.23
2018-03-24T13:23:19.279Z,24.12
2018-03-24T13:24:08.622Z,25.15
2018-03-24T13:24:57.684Z,22.87
2018-03-24T13:25:46.739Z,21.37
2018-03-24T13:26:35.810Z,19.55
2018-03-24T13:27:24.860Z,16.65
2018-03-24T13:28:13.923Z,13.73
2018-03-24T13:29:03.050Z,16.30
2018-03-24T13:29:52.564Z,17.65
2018-03-24T13:30:41.626Z,19.25
2018-03-24T13:31:30.725Z,22.05
2018-03-24T13:32:19.838Z,23.70
2018-03-24T13:33:08.898Z,17.27
2018-03-24T13:33:58.045Z,17.70
2018-03-24T13:34:47.107Z,27.33
2018-03-24T13:35:36.213Z,15.40
2018-03-24T13:36:25.277Z,15.75
2018-03-24T13:37:14.349Z,30.92
2018-03-24T13:38:03.489Z,22.50
2018-03-24T13:38:52.548Z,45.03
2018-03-24T13:39:41.633Z,26.23
2018-03-24T13:40:30.712Z,58.92
2018-03-24T13:41:19.809Z,33.17
2018-03-24T13:42:08.876Z,26.60
2018-03-24T13:42:57.952Z,29.52
2018-03-24T13:43:47.041Z,36.03
2018-03-24T13:44:36.127Z,27.20
2018-03-24T13:45:25.247Z,25.77
2018-03-24T13:46:14.301Z,28.58
2018-03-24T13:47:03.499Z,20.65
2018-03-24T13:47:52.851Z,23.35
2018-03-24T13:48:41.928Z,26.87
2018-03-24T13:49:31.050Z,18.77
2018-03-24T13:50:20.107Z,17.27
2018-03-24T13:51:09.172Z,18.00
2018-03-24T13:51:58.221Z,16.37
2018-03-24T13:52:47.276Z,19.33
2018-03-24T13:53:36.334Z,17.05
2018-03-24T13:54:25.384Z,19.35
2018-03-24T13:55:14.569Z,20.67
2018-03-24T13:56:03.639Z,29.00
2018-03-24T13:56:52.706Z,30.20
2018-03-24T13:57:41.771Z,31.73
2018-03-24T13:58:30.841Z,37.20
2018-03-24T13:59:19.896Z,33.67
2018-03-24T14:00:08.970Z,46.83
2018-03-24T14:00:58.093Z,64.00
2018-03-24T14:01:47.233Z,47.75
2018-03-24T14:02:36.297Z,45.03
2018-03-24T14:03:25.348Z,44.20
2018-03-24T14:04:14.418Z,47.30
2018-03-24T14:05:03.532Z,77.72
2018-03-24T14:05:52.892Z,89.93
2018-03-24T14:06:42.063Z,29.55
2018-03-24T14:07:31.135Z,23.52
2018-03-24T14:08:20.188Z,25.55
2018-03-24T14:09:09.248Z,30.80
2018-03-24T14:09:58.335Z,28.25
2018-03-24T14:10:47.480Z,42.17
2018-03-24T14:11:36.555Z,59.45
2018-03-24T14:12:25.641Z,33.88
2018-03-24T14:13:14.714Z,35.00
2018-03-24T14:14:03.828Z,19.62
2018-03-24T14:14:52.964Z,33.17
2018-03-24T14:15:42.120Z,20.58
2018-03-24T14:16:31.191Z,26.58
2018-03-24T14:17:20.285Z,41.37
2018-03-24T14:18:09.344Z,90.70
2018-03-24T14:18:58.401Z,35.65
2018-03-24T14:19:47.465Z,42.08
2018-03-24T14:20:36.539Z,37.28
2018-03-24T14:21:25.638Z,33.05
2018-03-24T14:22:14.726Z,30.08
2018-03-24T14:23:03.806Z,19.42
2018-03-24T14:23:52.902Z,24.05
2018-03-24T14:24:41.965Z,29.65
2018-03-24T14:25:31.079Z,19.55
2018-03-24T14:26:20.148Z,53.38
2018-03-24T14:27:09.272Z,33.55
2018-03-24T14:27:58.355Z,35.70
2018-03-24T14:28:47.406Z,33.45
2018-03-24T14:29:36.470Z,38.17
2018-03-24T14:30:25.531Z,42.55
2018-03-24T14:31:14.590Z,96.75
2018-03-24T14:32:03.751Z,60.78
2018-03-24T14:32:52.801Z,28.23
2018-03-24T14:33:41.869Z,27.37
2018-03-24T14:34:31.733Z,21.35
2018-03-24T14:35:20.817Z,27.05
2018-03-24T14:36:09.892Z,145.82
2018-03-24T14:36:59.049Z,22.52
2018-03-24T14:37:48.232Z,47.40
2018-03-24T14:38:37.284Z,23.75
2018-03-24T14:39:26.436Z,22.90
2018-03-24T14:40:15.515Z,26.42
2018-03-24T14:41:04.605Z,18.62
2018-03-24T14:41:53.666Z,22.85
2018-03-24T14:42:42.748Z,22.20
2018-03-24T14:43:31.923Z,19.48
2018-03-24T14:44:21.072Z,23.20
2018-03-24T14:45:10.151Z,27.45
2018-03-24T14:45:59.384Z,17.58
2018-03-24T14:46:48.448Z,21.08
2018-03-24T14:47:37.570Z,18.23
2018-03-24T14:48:26.632Z,29.05
2018-03-24T14:49:15.845Z,21.95
2018-03-24T14:50:05.075Z,18.20
2018-03-24T14:50:54.142Z,18.33
2018-03-24T14:51:43.206Z,17.95
2018-03-24T14:52:32.371Z,16.50
2018-03-24T14:53:21.501Z,20.83
2018-03-24T14:54:10.567Z,20.83
2018-03-24T14:54:59.858Z,21.48
2018-03-24T14:55:48.910Z,23.27
2018-03-24T14:56:38.133Z,34.25
2018-03-24T14:57:27.208Z,27.98
2018-03-24T14:58:16.320Z,26.40
2018-03-24T14:59:05.395Z,25.52
2018-03-24T14:59:54.514Z,28.75
2018-03-24T15:00:43.577Z,22.60
2018-03-24T15:01:32.662Z,27.50
2018-03-24T15:02:21.718Z,22.90
2018-03-24T15:03:10.786Z,22.27
2018-03-24T15:03:59.908Z,25.62
2018-03-24T15:04:49.048Z,27.15
2018-03-24T15:05:38.151Z,28.08
2018-03-24T15:06:27.248Z,28.62
2018-03-24T15:07:16.288Z,31.80
2018-03-24T15:08:05.402Z,30.60
2018-03-24T15:08:54.571Z,29.67
2018-03-24T15:09:43.641Z,34.25
2018-03-24T15:10:32.723Z,52.67
2018-03-24T15:11:21.790Z,49.72
2018-03-24T15:12:10.849Z,75.05
2018-03-24T15:12:59.931Z,60.83
2018-03-24T15:13:49.011Z,53.55
2018-03-24T15:14:38.125Z,46.97
2018-03-24T15:15:27.184Z,58.15
2018-03-24T15:16:16.237Z,40.55
2018-03-24T15:17:05.320Z,41.17
2018-03-24T15:17:54.444Z,30.48
2018-03-24T15:18:43.512Z,28.12
2018-03-24T15:19:32.612Z,26.95
2018-03-24T15:20:21.751Z,23.52
2018-03-24T15:21:10.869Z,24.27
2018-03-24T15:21:59.930Z,25.20
2018-03-24T15:22:48.992Z,24.98
2018-03-24T15:23:38.050Z,21.40
2018-03-24T15:24:27.172Z,23.83
2018-03-24T15:25:16.245Z,27.67
2018-03-24T18:04:52.069Z,67.18
2018-03-24T18:05:41.198Z,78.43
2018-03-24T18:06:31.101Z,72.12
2018-03-24T18:07:20.181Z,204.48
2018-03-24T18:08:09.277Z,130.05
2018-03-24T18:08:58.467Z,91.55
2018-03-24T18:09:47.540Z,90.93
2018-03-24T18:10:36.663Z,104.80
2018-03-24T18:11:25.766Z,71.72
2018-03-24T18:12:16.366Z,79.12
2018-03-24T18:13:05.461Z,77.72
2018-03-24T18:13:54.641Z,73.00
2018-03-24T18:14:43.711Z,76.80
2018-03-24T18:15:33.844Z,69.18
2018-03-24T18:16:23.001Z,97.62
2018-03-24T18:17:12.094Z,81.55
2018-03-24T18:18:01.182Z,77.57
2018-03-24T18:18:50.309Z,77.00
2018-03-24T18:19:40.218Z,72.50
2018-03-24T18:20:30.737Z,74.35
2018-03-24T18:21:20.692Z,69.90
2018-03-24T18:22:09.926Z,68.55
2018-03-24T18:22:59.006Z,67.10
2018-03-24T18:23:48.092Z,65.30
2018-03-24T18:24:37.183Z,61.97
2018-03-24T18:25:26.270Z,61.15
2018-03-24T18:26:15.386Z,61.20
2018-03-24T18:27:04.564Z,70.95
2018-03-24T18:27:53.651Z,65.78
2018-03-24T18:28:42.718Z,73.95
2018-03-24T18:29:31.790Z,77.70
2018-03-24T18:30:20.864Z,78.00
2018-03-24T18:31:09.932Z,88.97
2018-03-24T18:31:59.533Z,147.95
2018-03-24T18:32:48.606Z,271.62
2018-03-24T18:33:37.680Z,230.05
2018-03-24T18:34:26.750Z,171.62
2018-03-24T18:35:15.820Z,113.07
2018-03-24T18:36:04.910Z,85.38
2018-03-24T18:36:53.979Z,89.90
2018-03-24T18:37:43.145Z,85.35
2018-03-24T18:38:32.205Z,81.32
2018-03-24T18:39:21.271Z,74.05
2018-03-24T18:40:10.338Z,74.55
2018-03-24T18:40:59.412Z,71.18
2018-03-24T18:41:48.528Z,73.25
2018-03-24T18:42:37.639Z,71.60
2018-03-24T18:43:26.703Z,71.95
2018-03-24T18:44:15.833Z,68.87
2018-03-24T18:45:04.942Z,71.05
2018-03-24T18:45:54.044Z,71.30
2018-03-24T18:46:43.170Z,80.55
2018-03-24T18:47:32.243Z,83.07
2018-03-24T18:48:21.329Z,78.68
2018-03-24T18:49:10.496Z,77.72
2018-03-24T18:49:59.597Z,77.55
2018-03-24T18:50:49.310Z,69.87
2018-03-24T18:51:38.378Z,56.90
2018-03-24T18:52:27.444Z,64.15
2018-03-24T18:53:16.510Z,91.30
2018-03-24T18:54:05.591Z,138.50
2018-03-24T18:54:54.788Z,142.98
2018-03-24T18:55:43.858Z,81.75
2018-03-24T18:56:32.959Z,90.78
2018-03-24T18:57:22.080Z,81.45
2018-03-24T18:58:11.164Z,81.05
2018-03-24T18:59:00.280Z,83.20
2018-03-24T18:59:49.358Z,86.35
2018-03-24T19:00:38.503Z,108.55
2018-03-24T19:01:27.577Z,91.65
2018-03-24T19:02:16.764Z,87.55
2018-03-24T19:03:05.859Z,85.00
2018-03-24T19:03:54.950Z,80.95
2018-03-24T19:04:44.028Z,78.60
2018-03-24T19:05:33.117Z,67.95
2018-03-24T19:06:22.249Z,70.87
2018-03-24T19:07:11.326Z,70.87
2018-03-24T19:08:00.386Z,66.80
2018-03-24T19:08:49.542Z,68.25
2018-03-24T19:09:38.624Z,68.87
2018-03-24T19:10:27.688Z,64.32
2018-03-24T19:11:16.822Z,70.03
2018-03-24T19:12:05.909Z,73.00
2018-03-24T19:12:54.984Z,72.43
2018-03-24T19:13:44.264Z,80.10
2018-03-24T19:14:33.373Z,75.28
2018-03-24T19:15:22.441Z,86.93
2018-03-24T19:16:11.544Z,89.75
2018-03-24T19:17:00.623Z,81.40
2018-03-24T19:17:49.701Z,82.60
2018-03-24T19:18:38.763Z,70.03
2018-03-24T19:19:27.868Z,64.78
2018-03-24T19:20:16.999Z,63.45
2018-03-24T19:21:06.094Z,66.97
2018-03-24T19:21:55.155Z,62.28
2018-03-24T19:22:44.228Z,64.62
2018-03-24T19:23:33.314Z,64.55
2018-03-24T19:24:22.381Z,86.25
2018-03-24T19:25:11.519Z,109.53
2018-03-24T19:26:00.674Z,60.97
2018-03-24T19:26:49.758Z,55.53
2018-03-24T19:27:38.837Z,70.45
2018-03-24T19:28:27.932Z,56.03
2018-03-24T19:29:17.014Z,54.38
2018-03-24T19:30:06.089Z,57.95
2018-03-24T19:30:55.170Z,56.50
2018-03-24T19:31:44.267Z,60.50
2018-03-24T19:32:35.987Z,64.65
2018-03-24T19:33:25.411Z,66.47
2018-03-24T19:34:14.488Z,68.62
2018-03-24T19:36:26.594Z,56.95
2018-03-24T19:37:15.776Z,60.70
2018-03-24T19:38:04.885Z,50.88
2018-03-24T19:38:53.951Z,58.53
2018-03-24T19:39:43.068Z,60.60
2018-03-24T19:40:32.154Z,67.78
2018-03-24T19:41:21.297Z,61.10
2018-03-24T19:42:10.473Z,59.45
2018-03-24T19:42:59.582Z,59.75
2018-03-24T19:43:48.806Z,58.78
2018-03-24T19:44:37.886Z,58.80
2018-03-24T19:45:26.960Z,60.70
2018-03-24T19:46:16.039Z,64.90
2018-03-24T19:47:05.160Z,68.28
2018-03-24T19:47:54.223Z,69.57
2018-03-24T19:48:43.283Z,69.55
2018-03-24T19:49:32.347Z,69.43
2018-03-24T19:50:21.421Z,71.95
2018-03-24T19:51:10.853Z,80.93
2018-03-24T19:51:59.960Z,82.97
2018-03-24T19:52:49.146Z,84.62
2018-03-24T19:53:38.497Z,88.95
2018-03-24T19:54:27.622Z,92.35
2018-03-24T19:55:16.690Z,90.40
2018-03-24T19:56:05.840Z,96.57
2018-03-24T19:56:55.220Z,95.85
2018-03-24T19:57:44.296Z,83.28
2018-03-24T19:58:33.367Z,87.47
2018-03-24T19:59:22.434Z,75.30
2018-03-24T20:00:11.499Z,74.78
2018-03-24T20:01:00.601Z,69.53
2018-03-24T20:01:49.665Z,70.37
2018-03-24T20:02:38.840Z,96.37
2018-03-24T20:03:27.919Z,132.43
2018-03-24T20:04:16.988Z,118.80
2018-03-24T20:05:06.143Z,108.70
2018-03-24T20:05:55.221Z,102.62
2018-03-24T20:06:44.383Z,101.25
2018-03-24T20:07:33.456Z,88.30
2018-03-24T20:08:22.663Z,89.30
2018-03-24T20:09:11.733Z,78.37
2018-03-24T20:10:00.944Z,80.57
2018-03-24T20:10:50.017Z,87.70
2018-03-24T20:11:39.093Z,113.70
2018-03-24T20:12:28.167Z,114.05
2018-03-24T20:13:17.767Z,116.18
2018-03-24T20:14:06.874Z,108.60
2018-03-24T20:14:55.960Z,112.65
2018-03-24T20:15:45.219Z,110.75
2018-03-24T20:16:34.452Z,108.37
2018-03-24T20:17:23.438Z,109.20
2018-03-24T20:18:12.522Z,99.05
2018-03-24T20:19:01.583Z,88.93
2018-03-24T20:19:50.698Z,93.37
2018-03-24T20:20:39.770Z,98.62
2018-03-24T20:21:28.862Z,95.72
2018-03-24T20:22:17.998Z,88.95
2018-03-24T20:23:07.060Z,86.35
2018-03-24T20:23:56.149Z,87.75
2018-03-24T20:24:45.321Z,86.93
2018-03-24T20:25:34.410Z,93.68
2018-03-24T20:26:23.467Z,99.40
2018-03-24T20:27:12.581Z,107.35
2018-03-24T20:28:01.673Z,104.55
2018-03-24T20:28:50.750Z,96.05
2018-03-24T20:29:39.816Z,86.25
